Weather reports worldwide

Advertisment
Molina De Aragon, Spain (8232): temperature & dewpoint: 09.10.2019 20:00:00 - 15.10.2019 20:00:00 (CEST)Molina De Aragon, Spain (8232): wind speed: 09.10.2019 20:00:00 - 15.10.2019 20:00:00 (CEST)Molina De Aragon, Spain (8232): wind direction: 09.10.2019 20:00:00 - 15.10.2019 20:00:00 (CEST)Molina De Aragon, Spain (8232): visibility: 09.10.2019 20:00:00 - 15.10.2019 20:00:00 (CEST)Molina De Aragon, Spain (8232): precipitation: 09.10.2019 20:00:00 - 15.10.2019 20:00:00 (CEST)
Date & Time tt [°C] td [°C] ff [km/h] ff [kn] dd vv [km] rr [mm]
15.10.2019 20:00:00 - - - - - - -
15.10.2019 19:00:00 13,1 2,0 8 4 WSW 20 0,0
15.10.2019 18:00:00 14,2 1,8 9 5 W 20 0,0
15.10.2019 17:00:00 14,9 1,7 11 6 WSW 20 -
15.10.2019 16:00:00 14,4 1,0 9 5 WNW 20 0,0
15.10.2019 15:00:00 13,9 2,5 8 4 WNW 20 0,0
15.10.2019 14:00:00 12,8 2,6 9 5 W 20 -
15.10.2019 13:00:00 11,3 2,8 11 6 W 20 0,0
15.10.2019 12:00:00 9,3 2,8 9 5 W 20 0,0
15.10.2019 11:00:00 8,3 2,9 11 6 W 20 -
15.10.2019 10:00:00 5,6 2,2 13 7 WSW 20 0,0
15.10.2019 09:00:00 2,9 1,3 4 2 WSW 20 0,0
15.10.2019 08:00:00 4,1 1,6 5 3 W 20 -
15.10.2019 07:00:00 4,8 2,0 5 3 W 20 0,0
15.10.2019 06:00:00 5,2 2,2 9 5 W 20 0,0
15.10.2019 05:00:00 5,1 2,1 13 7 W 20 -
15.10.2019 04:00:00 5,1 2,1 8 4 W 20 0,0
15.10.2019 03:00:00 6,2 2,5 9 5 W 20 0,0
15.10.2019 02:00:00 7,0 4,3 11 6 W 20 -
15.10.2019 01:00:00 7,3 5,3 4 2 SW 20 0,0
15.10.2019 00:00:00 8,0 6,0 11 6 WSW 20 0,0
14.10.2019 23:00:00 8,4 6,0 8 4 WSW 20 -
14.10.2019 22:00:00 9,0 6,8 16 9 WSW 8 0,6
14.10.2019 21:00:00 11,8 6,5 18 10 WSW 20 0,0
14.10.2019 20:00:00 13,9 5,0 9 5 WSW 20 -
14.10.2019 19:00:00 15,4 6,7 15 8 WSW 20 0,0
14.10.2019 18:00:00 16,3 8,5 13 7 WSW 20 0,0
14.10.2019 17:00:00 15,5 10,5 13 7 SW 20 -
14.10.2019 16:00:00 13,8 10,4 13 7 WSW 20 0,0
14.10.2019 15:00:00 17,2 11,9 15 8 SSW 20 0,0
14.10.2019 14:00:00 16,4 11,8 13 7 SSW 20 -
14.10.2019 13:00:00 17,2 11,7 21 11 S 20 0,0
14.10.2019 12:00:00 16,3 11,2 22 12 S 20 0,2
14.10.2019 11:00:00 14,0 11,0 18 10 S 14 -
14.10.2019 10:00:00 16,7 10,8 16 9 SSW 7 0,2
14.10.2019 09:00:00 18,2 7,6 13 7 SSE 20 0,0
14.10.2019 08:00:00 18,3 7,1 15 8 S 20 -
14.10.2019 07:00:00 18,4 7,5 11 6 SSE 20 0,0
14.10.2019 06:00:00 17,6 7,6 8 4 SE 20 0,0
14.10.2019 05:00:00 15,6 7,6 11 6 SSE 20 -
14.10.2019 04:00:00 14,1 8,1 8 4 ESE 20 0,0
14.10.2019 03:00:00 7,7 2,2 5 3 E 20 0,0
14.10.2019 02:00:00 8,2 1,6 2 1 ESE 19 -
14.10.2019 01:00:00 9,5 1,9 0 0 N 20 0,0
14.10.2019 00:00:00 11,2 2,0 2 1 SSW 20 0,0
13.10.2019 23:00:00 11,3 1,5 4 2 E 20 -
13.10.2019 22:00:00 12,7 1,1 4 2 E 20 0,0
13.10.2019 21:00:00 16,1 1,4 2 1 ENE 20 0,0
13.10.2019 20:00:00 19,8 2,2 4 2 SSW 20 -
13.10.2019 19:00:00 22,2 2,3 8 4 SW 20 0,0
13.10.2019 18:00:00 23,5 2,3 13 7 SW 20 0,0
13.10.2019 17:00:00 24,2 5,0 11 6 SW 20 -
13.10.2019 16:00:00 24,0 5,3 13 7 SW 20 0,0
13.10.2019 15:00:00 23,7 7,3 15 8 SSW 20 0,0
13.10.2019 14:00:00 22,8 9,9 13 7 WSW 20 -
13.10.2019 13:00:00 21,6 11,0 13 7 WSW 20 0,0
13.10.2019 12:00:00 20,5 11,7 11 6 SW 20 0,0
13.10.2019 11:00:00 18,6 11,4 5 3 WNW 20 -
13.10.2019 10:00:00 13,0 9,6 2 1 SSE 20 0,0
13.10.2019 09:00:00 9,0 7,4 4 2 WSW 19 0,0
13.10.2019 08:00:00 8,6 6,7 2 1 SSW 18 -
13.10.2019 07:00:00 9,1 6,9 2 1 E 20 0,0
13.10.2019 06:00:00 9,5 6,8 2 1 SE 20 0,0
13.10.2019 05:00:00 10,3 7,0 2 1 SW 20 -
13.10.2019 04:00:00 10,3 6,1 2 1 E 20 0,0
13.10.2019 03:00:00 12,3 7,0 2 1 NNE 20 0,0
13.10.2019 02:00:00 14,3 8,3 4 2 SSE 20 -
13.10.2019 01:00:00 15,9 8,9 5 3 W 20 0,0
13.10.2019 00:00:00 16,5 8,2 13 7 W 20 0,0
12.10.2019 23:00:00 14,2 4,2 2 1 ENE 20 -
12.10.2019 22:00:00 16,2 4,6 2 1 ENE 20 0,0
12.10.2019 21:00:00 19,4 4,7 2 1 E 20 0,0
12.10.2019 20:00:00 20,9 4,9 2 1 S 18 -
12.10.2019 19:00:00 22,1 5,5 9 5 SW 20 0,0
12.10.2019 18:00:00 24,1 5,4 11 6 WSW 20 0,0
12.10.2019 17:00:00 24,1 5,4 9 5 SW 20 -
12.10.2019 16:00:00 24,5 5,8 9 5 SW 20 0,0
12.10.2019 15:00:00 25,2 6,4 5 3 SSW 20 0,0
12.10.2019 14:00:00 24,5 8,4 8 4 S 20 -
12.10.2019 13:00:00 22,9 9,3 9 5 SSW 20 0,0
12.10.2019 12:00:00 19,9 10,9 5 3 NW 20 0,0
12.10.2019 11:00:00 16,4 10,7 2 1 WSW 19 -
12.10.2019 10:00:00 14,5 10,3 2 1 S 20 0,0
12.10.2019 09:00:00 13,4 9,3 2 1 SE 20 0,0
12.10.2019 08:00:00 13,6 9,4 2 1 WSW 20 -
12.10.2019 07:00:00 13,6 8,8 2 1 E 20 0,0
12.10.2019 06:00:00 14,4 9,0 4 2 E 20 0,0
12.10.2019 05:00:00 15,4 9,3 2 1 NW 20 -
12.10.2019 04:00:00 15,6 9,3 2 1 E 20 0,0
12.10.2019 03:00:00 16,3 9,5 2 1 NNW 20 0,0
12.10.2019 02:00:00 16,9 9,3 2 1 ESE 17 -
12.10.2019 01:00:00 16,4 9,1 2 1 E 20 0,0
12.10.2019 00:00:00 16,4 8,9 2 1 WNW 20 0,0
11.10.2019 23:00:00 17,1 8,8 2 1 NE 20 -
11.10.2019 22:00:00 18,1 8,6 4 2 SSW 20 0,0
11.10.2019 21:00:00 18,4 6,9 2 1 N 19 0,0
11.10.2019 20:00:00 21,3 6,8 4 2 SSW 20 -
11.10.2019 19:00:00 24,0 8,8 8 4 WSW 20 0,0
11.10.2019 18:00:00 25,5 9,7 9 5 W 20 0,0
11.10.2019 17:00:00 26,1 9,9 9 5 WSW 20 -
11.10.2019 16:00:00 26,6 9,4 13 7 W 20 0,0
11.10.2019 15:00:00 26,6 10,3 9 5 WSW 20 0,0
11.10.2019 14:00:00 26,2 11,1 9 5 SW 20 -
11.10.2019 13:00:00 23,9 12,5 5 3 WNW 20 0,0
11.10.2019 12:00:00 19,3 11,3 4 2 SSW 20 0,0
11.10.2019 11:00:00 14,0 9,0 2 1 W 20 -
11.10.2019 10:00:00 9,7 7,6 2 1 S 20 0,0
11.10.2019 09:00:00 6,0 4,8 2 1 SSE 20 0,0
11.10.2019 08:00:00 5,8 4,3 2 1 ENE 20 -
11.10.2019 07:00:00 6,2 4,5 2 1 E 20 0,0
11.10.2019 06:00:00 6,5 4,7 2 1 ESE 20 0,0
11.10.2019 05:00:00 7,0 5,0 2 1 SSE 20 -
11.10.2019 04:00:00 7,4 5,0 0 0 N 20 0,0
11.10.2019 03:00:00 8,2 5,3 2 1 ENE 20 0,0
11.10.2019 02:00:00 9,1 6,0 2 1 E 20 -
11.10.2019 01:00:00 10,1 6,1 2 1 E 20 0,0
11.10.2019 00:00:00 11,3 7,0 2 1 SE 20 0,0
10.10.2019 23:00:00 12,6 7,3 4 2 E 20 -
10.10.2019 22:00:00 14,6 8,1 2 1 E 20 0,0
10.10.2019 21:00:00 16,9 8,8 2 1 ENE 20 0,0
10.10.2019 20:00:00 19,7 9,6 2 1 NNE 10 -
10.10.2019 19:00:00 23,0 10,4 5 3 NNE 11 0,0
10.10.2019 18:00:00 25,0 10,5 9 5 WNW 20 0,0
10.10.2019 17:00:00 25,5 8,9 9 5 W 19 -
10.10.2019 16:00:00 24,4 11,0 4 2 E 20 0,0
10.10.2019 15:00:00 23,9 11,9 5 3 NNW 7 0,0
10.10.2019 14:00:00 22,0 11,7 4 2 NNW 4,5 -
10.10.2019 13:00:00 20,2 11,9 4 2 SSW 20 0,0
10.10.2019 12:00:00 17,5 9,6 2 1 NNW 20 0,0
10.10.2019 11:00:00 14,1 6,9 8 4 N 20 -
10.10.2019 10:00:00 8,5 5,2 2 1 SSW 20 0,0
10.10.2019 09:00:00 5,0 3,2 2 1 E 20 0,0
10.10.2019 08:00:00 4,9 2,8 2 1 E 20 -
10.10.2019 07:00:00 5,2 2,9 0 0 N 20 0,0
10.10.2019 06:00:00 5,6 3,3 2 1 E 20 0,0
10.10.2019 05:00:00 6,2 3,5 2 1 E 20 -
10.10.2019 04:00:00 6,9 4,0 2 1 ENE 20 0,0
10.10.2019 03:00:00 7,8 4,4 2 1 E 20 0,0
10.10.2019 02:00:00 8,8 5,0 4 2 E 20 -
10.10.2019 01:00:00 9,7 5,3 5 3 E 20 0,0
10.10.2019 00:00:00 10,8 6,0 8 4 ESE 20 0,0
09.10.2019 23:00:00 12,0 6,5 5 3 E 20 -
09.10.2019 22:00:00 13,6 7,8 5 3 E 20 0,0
09.10.2019 21:00:00 15,7 8,9 5 3 NNE 20 0,0
09.10.2019 20:00:00 18,4 10,0 2 1 NNE 18 -

tt = temperature
td = dewpoint
ff = wind speed
dd = wind direction
vv = visibility
rr = precipitation

Next stations